createdAt,value
2019-02-20T00:00:22.916Z,1.70
2019-02-20T00:02:51.388Z,1.60
2019-02-20T00:05:19.808Z,1.40
2019-02-20T00:07:48.253Z,1.50
2019-02-20T00:10:16.668Z,1.60
2019-02-20T00:12:45.112Z,1.80
2019-02-20T00:15:13.536Z,1.80
2019-02-20T00:17:41.969Z,1.70
2019-02-20T00:20:10.500Z,1.70
2019-02-20T00:22:40.510Z,1.40
2019-02-20T00:25:09.163Z,1.40
2019-02-20T00:27:37.593Z,1.20
2019-02-20T00:30:08.897Z,1.20
2019-02-20T00:32:37.350Z,1.00
2019-02-20T00:35:06.616Z,0.90
2019-02-20T00:37:35.060Z,0.80
2019-02-20T00:40:04.736Z,0.70
2019-02-20T00:42:33.199Z,0.60
2019-02-20T00:45:03.260Z,0.60
2019-02-20T00:47:49.719Z,0.70
2019-02-20T00:50:19.417Z,0.80
2019-02-20T00:52:50.285Z,0.80
2019-02-20T00:55:38.370Z,0.90
2019-02-20T00:58:06.844Z,0.80
2019-02-20T01:00:35.256Z,0.80
2019-02-20T01:03:03.977Z,0.90
2019-02-20T01:05:32.385Z,0.90
2019-02-20T01:08:00.845Z,0.90
2019-02-20T01:10:29.261Z,0.80
2019-02-20T01:12:57.692Z,0.70
2019-02-20T01:15:26.177Z,0.50
2019-02-20T01:17:54.636Z,0.50
2019-02-20T01:20:23.061Z,0.40
2019-02-20T01:22:59.694Z,0.20
2019-02-20T01:25:21.635Z,0.10
2019-02-20T01:27:50.045Z,0.10
2019-02-20T01:30:18.505Z,0.30
2019-02-20T01:32:46.925Z,0.30
2019-02-20T01:35:15.372Z,0.30
2019-02-20T01:37:43.800Z,0.40
2019-02-20T01:40:12.225Z,0.50
2019-02-20T01:42:40.708Z,0.50
2019-02-20T01:45:09.130Z,0.50
2019-02-20T01:47:37.560Z,0.60
2019-02-20T01:50:07.229Z,0.60
2019-02-20T01:52:35.643Z,0.60
2019-02-20T01:55:06.047Z,0.60
2019-02-20T01:57:34.488Z,0.70
2019-02-20T02:00:03.311Z,0.60
2019-02-20T02:02:31.737Z,0.50
2019-02-20T02:05:00.388Z,0.40
2019-02-20T02:07:28.811Z,0.20
2019-02-20T02:09:57.259Z,0.20
2019-02-20T02:12:25.680Z,0.20
2019-02-20T02:14:54.122Z,0.00
2019-02-20T02:17:22.535Z,0.10
2019-02-20T02:19:50.977Z,0.20
2019-02-20T02:22:19.387Z,0.20
2019-02-20T02:24:47.842Z,-0.10
2019-02-20T02:27:16.243Z,-0.20
2019-02-20T02:29:44.676Z,-0.40
2019-02-20T02:32:13.106Z,-0.50
2019-02-20T02:34:41.623Z,-0.30
2019-02-20T02:37:10.045Z,-0.30
2019-02-20T02:39:38.557Z,-0.30
2019-02-20T02:42:06.976Z,-0.20
2019-02-20T02:44:35.424Z,-0.20
2019-02-20T02:47:03.832Z,-0.10
2019-02-20T02:49:32.319Z,0.00
2019-02-20T02:52:00.761Z,0.10
2019-02-20T02:54:29.218Z,0.00
2019-02-20T02:56:57.613Z,0.10
2019-02-20T02:59:26.039Z,0.10
2019-02-20T03:01:54.476Z,0.10
